sensor_id;sensor_type;location;lat;lon;timestamp;temperature;humidity
12957;DHT22;6543;48.836;10.092;2023-04-05T00:03:27;-1.90;99.90
12957;DHT22;6543;48.836;10.092;2023-04-05T00:05:58;-1.90;99.90
12957;DHT22;6543;48.836;10.092;2023-04-05T00:10:58;-1.90;99.90
12957;DHT22;6543;48.836;10.092;2023-04-05T00:13:29;-1.70;99.90
12957;DHT22;6543;48.836;10.092;2023-04-05T00:16:02;-1.80;99.90
12957;DHT22;6543;48.836;10.092;2023-04-05T00:18:32;-1.70;99.90
12957;DHT22;6543;48.836;10.092;2023-04-05T00:21:03;-0.40;99.90
12957;DHT22;6543;48.836;10.092;2023-04-05T00:26:06;-1.60;99.90
12957;DHT22;6543;48.836;10.092;2023-04-05T00:28:36;-1.60;99.90
12957;DHT22;6543;48.836;10.092;2023-04-05T00:31:08;-1.70;99.90
12957;DHT22;6543;48.836;10.092;2023-04-05T00:33:38;-1.70;99.90
12957;DHT22;6543;48.836;10.092;2023-04-05T00:36:13;-1.50;99.90
12957;DHT22;6543;48.836;10.092;2023-04-05T00:38:43;-1.60;99.90
12957;DHT22;6543;48.836;10.092;2023-04-05T00:41:17;-1.70;99.90
12957;DHT22;6543;48.836;10.092;2023-04-05T00:43:48;-1.80;99.90
12957;DHT22;6543;48.836;10.092;2023-04-05T00:46:19;-1.90;99.90
12957;DHT22;6543;48.836;10.092;2023-04-05T00:48:47;-2.00;99.90
12957;DHT22;6543;48.836;10.092;2023-04-05T00:51:21;-2.10;99.90
12957;DHT22;6543;48.836;10.092;2023-04-05T00:53:51;-2.10;99.90
12957;DHT22;6543;48.836;10.092;2023-04-05T00:56:24;-2.20;99.90
12957;DHT22;6543;48.836;10.092;2023-04-05T00:58:52;-1.40;99.90
12957;DHT22;6543;48.836;10.092;2023-04-05T01:01:26;-2.20;99.90
12957;DHT22;6543;48.836;10.092;2023-04-05T01:04:02;-2.20;99.90
12957;DHT22;6543;48.836;10.092;2023-04-05T01:06:51;-2.30;99.90
12957;DHT22;6543;48.836;10.092;2023-04-05T01:09:36;-1.30;99.90
12957;DHT22;6543;48.836;10.092;2023-04-05T01:12:09;-2.20;99.90
12957;DHT22;6543;48.836;10.092;2023-04-05T01:14:49;-2.20;99.90
12957;DHT22;6543;48.836;10.092;2023-04-05T01:17:17;-2.20;99.90
12957;DHT22;6543;48.836;10.092;2023-04-05T01:19:50;-2.10;99.90
12957;DHT22;6543;48.836;10.092;2023-04-05T01:25:36;-1.90;99.90
12957;DHT22;6543;48.836;10.092;2023-04-05T01:31:07;-2.20;99.90
12957;DHT22;6543;48.836;10.092;2023-04-05T01:33:43;-1.90;99.90
12957;DHT22;6543;48.836;10.092;2023-04-05T01:36:16;-2.30;99.90
12957;DHT22;6543;48.836;10.092;2023-04-05T01:38:49;-2.40;99.90
12957;DHT22;6543;48.836;10.092;2023-04-05T01:41:20;-2.60;99.90
12957;DHT22;6543;48.836;10.092;2023-04-05T01:43:52;-2.60;99.90
12957;DHT22;6543;48.836;10.092;2023-04-05T01:46:21;-2.60;99.90
12957;DHT22;6543;48.836;10.092;2023-04-05T01:48:52;-3.00;99.90
12957;DHT22;6543;48.836;10.092;2023-04-05T01:51:22;-3.10;99.90
12957;DHT22;6543;48.836;10.092;2023-04-05T01:53:54;-2.80;99.90
12957;DHT22;6543;48.836;10.092;2023-04-05T01:56:26;-2.80;99.90
12957;DHT22;6543;48.836;10.092;2023-04-05T01:59:00;-2.90;99.90
12957;DHT22;6543;48.836;10.092;2023-04-05T02:01:32;-3.00;99.90
12957;DHT22;6543;48.836;10.092;2023-04-05T02:04:03;-2.80;99.90
12957;DHT22;6543;48.836;10.092;2023-04-05T02:06:37;-2.80;99.90
12957;DHT22;6543;48.836;10.092;2023-04-05T02:09:04;-2.90;99.90
12957;DHT22;6543;48.836;10.092;2023-04-05T02:11:34;-2.40;99.90
12957;DHT22;6543;48.836;10.092;2023-04-05T02:14:04;-2.80;99.90
12957;DHT22;6543;48.836;10.092;2023-04-05T02:16:50;-2.60;99.90
12957;DHT22;6543;48.836;10.092;2023-04-05T02:19:20;-1.80;99.90
12957;DHT22;6543;48.836;10.092;2023-04-05T02:24:21;-2.50;99.90
12957;DHT22;6543;48.836;10.092;2023-04-05T02:26:57;-2.50;99.90
12957;DHT22;6543;48.836;10.092;2023-04-05T02:31:57;-2.40;99.90
12957;DHT22;6543;48.836;10.092;2023-04-05T02:34:31;-2.30;99.90
12957;DHT22;6543;48.836;10.092;2023-04-05T02:37:06;-2.20;99.90
12957;DHT22;6543;48.836;10.092;2023-04-05T02:39:47;-2.40;99.90
12957;DHT22;6543;48.836;10.092;2023-04-05T02:42:27;-2.20;99.90
12957;DHT22;6543;48.836;10.092;2023-04-05T02:44:59;-2.20;99.90
12957;DHT22;6543;48.836;10.092;2023-04-05T02:47:30;-2.20;99.90
12957;DHT22;6543;48.836;10.092;2023-04-05T02:52:25;-2.30;99.90
12957;DHT22;6543;48.836;10.092;2023-04-05T02:54:53;-4.20;99.90
12957;DHT22;6543;48.836;10.092;2023-04-05T02:57:26;-2.20;99.90
12957;DHT22;6543;48.836;10.092;2023-04-05T03:02:40;-2.30;99.90
12957;DHT22;6543;48.836;10.092;2023-04-05T03:05:10;-2.20;99.90
12957;DHT22;6543;48.836;10.092;2023-04-05T03:10:18;-2.50;99.90
12957;DHT22;6543;48.836;10.092;2023-04-05T03:12:47;-2.50;99.90
12957;DHT22;6543;48.836;10.092;2023-04-05T03:15:17;-2.60;99.90
12957;DHT22;6543;48.836;10.092;2023-04-05T03:17:48;-3.10;99.90
12957;DHT22;6543;48.836;10.092;2023-04-05T03:22:46;-0.60;99.90
12957;DHT22;6543;48.836;10.092;2023-04-05T03:25:16;-2.70;99.90
12957;DHT22;6543;48.836;10.092;2023-04-05T03:27:47;-2.50;99.90
12957;DHT22;6543;48.836;10.092;2023-04-05T03:30:20;-2.50;99.90
12957;DHT22;6543;48.836;10.092;2023-04-05T03:32:51;-2.80;99.90
12957;DHT22;6543;48.836;10.092;2023-04-05T03:35:34;-4.60;99.90
12957;DHT22;6543;48.836;10.092;2023-04-05T03:40:35;-2.90;99.90
12957;DHT22;6543;48.836;10.092;2023-04-05T03:45:42;-2.90;99.90
12957;DHT22;6543;48.836;10.092;2023-04-05T03:50:59;-3.00;99.90
12957;DHT22;6543;48.836;10.092;2023-04-05T03:55:59;-3.00;99.90
12957;DHT22;6543;48.836;10.092;2023-04-05T03:58:33;-3.00;99.90
12957;DHT22;6543;48.836;10.092;2023-04-05T04:01:09;-4.60;99.90
12957;DHT22;6543;48.836;10.092;2023-04-05T04:03:38;-2.90;99.90
12957;DHT22;6543;48.836;10.092;2023-04-05T04:06:10;-2.30;99.90
12957;DHT22;6543;48.836;10.092;2023-04-05T04:13:40;-2.50;99.90
12957;DHT22;6543;48.836;10.092;2023-04-05T04:21:13;-3.10;99.90
12957;DHT22;6543;48.836;10.092;2023-04-05T04:23:46;-2.60;99.90
12957;DHT22;6543;48.836;10.092;2023-04-05T04:26:19;-3.30;99.90
12957;DHT22;6543;48.836;10.092;2023-04-05T04:28:59;-2.60;99.90
12957;DHT22;6543;48.836;10.092;2023-04-05T04:31:35;-2.30;99.90
12957;DHT22;6543;48.836;10.092;2023-04-05T04:34:09;-2.70;99.90
12957;DHT22;6543;48.836;10.092;2023-04-05T04:36:42;-2.90;99.90
12957;DHT22;6543;48.836;10.092;2023-04-05T04:39:13;-2.50;99.90
12957;DHT22;6543;48.836;10.092;2023-04-05T04:41:54;-3.00;99.90
12957;DHT22;6543;48.836;10.092;2023-04-05T04:44:22;-3.20;99.90
12957;DHT22;6543;48.836;10.092;2023-04-05T04:46:55;-3.50;99.90
12957;DHT22;6543;48.836;10.092;2023-04-05T04:49:29;-3.30;99.90
12957;DHT22;6543;48.836;10.092;2023-04-05T04:54:42;-3.10;99.90
12957;DHT22;6543;48.836;10.092;2023-04-05T04:57:15;-3.00;99.90
12957;DHT22;6543;48.836;10.092;2023-04-05T04:59:44;-3.40;99.90
12957;DHT22;6543;48.836;10.092;2023-04-05T05:02:16;-3.40;99.90
12957;DHT22;6543;48.836;10.092;2023-04-05T05:07:30;-3.30;99.90
12957;DHT22;6543;48.836;10.092;2023-04-05T05:10:01;-3.30;99.90
12957;DHT22;6543;48.836;10.092;2023-04-05T05:12:36;-3.30;99.90
12957;DHT22;6543;48.836;10.092;2023-04-05T05:15:10;-0.60;99.90
12957;DHT22;6543;48.836;10.092;2023-04-05T05:22:57;-3.90;99.90
12957;DHT22;6543;48.836;10.092;2023-04-05T05:25:27;-3.50;99.90
12957;DHT22;6543;48.836;10.092;2023-04-05T05:28:00;-1.30;99.90
12957;DHT22;6543;48.836;10.092;2023-04-05T05:30:35;-3.30;99.90
12957;DHT22;6543;48.836;10.092;2023-04-05T05:33:03;-2.50;99.90
12957;DHT22;6543;48.836;10.092;2023-04-05T05:35:30;-3.00;99.90
12957;DHT22;6543;48.836;10.092;2023-04-05T05:37:58;-3.00;99.90
12957;DHT22;6543;48.836;10.092;2023-04-05T05:40:26;-2.60;99.90
12957;DHT22;6543;48.836;10.092;2023-04-05T05:42:52;-2.10;99.90
12957;DHT22;6543;48.836;10.092;2023-04-05T05:45:19;-2.80;99.90
12957;DHT22;6543;48.836;10.092;2023-04-05T05:47:46;-2.60;99.90
12957;DHT22;6543;48.836;10.092;2023-04-05T05:50:13;-2.70;99.90
12957;DHT22;6543;48.836;10.092;2023-04-05T05:52:41;-2.60;99.90
12957;DHT22;6543;48.836;10.092;2023-04-05T05:55:10;-1.00;99.90
12957;DHT22;6543;48.836;10.092;2023-04-05T05:57:36;-2.40;99.90
12957;DHT22;6543;48.836;10.092;2023-04-05T06:00:05;-2.40;99.90
12957;DHT22;6543;48.836;10.092;2023-04-05T06:02:36;-1.60;99.90
12957;DHT22;6543;48.836;10.092;2023-04-05T06:05:04;-2.40;99.90
12957;DHT22;6543;48.836;10.092;2023-04-05T06:07:42;-3.00;99.90
12957;DHT22;6543;48.836;10.092;2023-04-05T06:10:12;0.70;99.90
12957;DHT22;6543;48.836;10.092;2023-04-05T06:12:40;-1.90;99.90
12957;DHT22;6543;48.836;10.092;2023-04-05T06:15:10;-1.80;99.90
12957;DHT22;6543;48.836;10.092;2023-04-05T06:17:46;-2.10;99.90
12957;DHT22;6543;48.836;10.092;2023-04-05T06:20:13;-1.70;99.90
12957;DHT22;6543;48.836;10.092;2023-04-05T06:22:54;-1.80;99.90
12957;DHT22;6543;48.836;10.092;2023-04-05T06:25:34;-1.60;99.90
12957;DHT22;6543;48.836;10.092;2023-04-05T06:28:03;-1.50;99.90
12957;DHT22;6543;48.836;10.092;2023-04-05T06:30:31;-1.30;99.90
12957;DHT22;6543;48.836;10.092;2023-04-05T06:33:01;-0.90;99.90
12957;DHT22;6543;48.836;10.092;2023-04-05T06:35:28;-0.90;99.90
12957;DHT22;6543;48.836;10.092;2023-04-05T06:37:55;-1.10;99.90
12957;DHT22;6543;48.836;10.092;2023-04-05T06:40:22;0.90;99.90
12957;DHT22;6543;48.836;10.092;2023-04-05T06:42:51;1.40;99.90
12957;DHT22;6543;48.836;10.092;2023-04-05T06:45:18;2.10;99.90
12957;DHT22;6543;48.836;10.092;2023-04-05T06:47:45;0.30;99.90
12957;DHT22;6543;48.836;10.092;2023-04-05T06:50:12;1.50;99.90
12957;DHT22;6543;48.836;10.092;2023-04-05T06:52:39;-0.70;99.90
12957;DHT22;6543;48.836;10.092;2023-04-05T06:55:06;0.00;99.90
12957;DHT22;6543;48.836;10.092;2023-04-05T06:57:34;0.00;99.90
12957;DHT22;6543;48.836;10.092;2023-04-05T07:00:03;0.20;99.90
12957;DHT22;6543;48.836;10.092;2023-04-05T07:02:35;0.50;99.90
12957;DHT22;6543;48.836;10.092;2023-04-05T07:05:03;0.40;99.90
12957;DHT22;6543;48.836;10.092;2023-04-05T07:07:31;2.90;99.90
12957;DHT22;6543;48.836;10.092;2023-04-05T07:09:58;2.70;99.90
12957;DHT22;6543;48.836;10.092;2023-04-05T07:12:25;0.60;99.90
12957;DHT22;6543;48.836;10.092;2023-04-05T07:14:56;1.70;99.90
12957;DHT22;6543;48.836;10.092;2023-04-05T07:17:41;1.80;99.90
12957;DHT22;6543;48.836;10.092;2023-04-05T07:20:11;1.60;99.90
12957;DHT22;6543;48.836;10.092;2023-04-05T07:22:38;2.00;99.90
12957;DHT22;6543;48.836;10.092;2023-04-05T07:25:08;2.20;99.90
12957;DHT22;6543;48.836;10.092;2023-04-05T07:27:41;2.30;99.90
12957;DHT22;6543;48.836;10.092;2023-04-05T07:30:17;2.40;99.90
12957;DHT22;6543;48.836;10.092;2023-04-05T07:32:50;3.10;99.90
12957;DHT22;6543;48.836;10.092;2023-04-05T07:35:23;1.20;99.90
12957;DHT22;6543;48.836;10.092;2023-04-05T07:37:58;4.30;99.90
12957;DHT22;6543;48.836;10.092;2023-04-05T07:40:25;3.10;99.90
12957;DHT22;6543;48.836;10.092;2023-04-05T07:42:53;3.80;99.90
12957;DHT22;6543;48.836;10.092;2023-04-05T07:45:20;4.50;99.90
12957;DHT22;6543;48.836;10.092;2023-04-05T07:47:49;4.50;99.90
12957;DHT22;6543;48.836;10.092;2023-04-05T07:50:16;2.60;99.90
12957;DHT22;6543;48.836;10.092;2023-04-05T07:52:43;3.40;99.90
12957;DHT22;6543;48.836;10.092;2023-04-05T07:55:16;3.90;99.90
12957;DHT22;6543;48.836;10.092;2023-04-05T07:57:49;3.70;99.90
12957;DHT22;6543;48.836;10.092;2023-04-05T08:00:23;6.00;99.90
12957;DHT22;6543;48.836;10.092;2023-04-05T08:02:53;4.10;99.90
12957;DHT22;6543;48.836;10.092;2023-04-05T08:05:20;5.10;99.90
12957;DHT22;6543;48.836;10.092;2023-04-05T08:07:47;6.50;99.90
12957;DHT22;6543;48.836;10.092;2023-04-05T08:10:15;3.80;99.90
12957;DHT22;6543;48.836;10.092;2023-04-05T08:12:42;5.00;99.90
12957;DHT22;6543;48.836;10.092;2023-04-05T08:15:09;5.60;99.90
12957;DHT22;6543;48.836;10.092;2023-04-05T08:17:36;4.30;99.90
12957;DHT22;6543;48.836;10.092;2023-04-05T08:20:06;4.00;99.90
12957;DHT22;6543;48.836;10.092;2023-04-05T08:22:33;4.50;99.90
12957;DHT22;6543;48.836;10.092;2023-04-05T08:25:00;4.50;99.90
12957;DHT22;6543;48.836;10.092;2023-04-05T08:27:27;4.40;99.90
12957;DHT22;6543;48.836;10.092;2023-04-05T08:29:54;6.20;99.90
12957;DHT22;6543;48.836;10.092;2023-04-05T08:32:21;4.60;99.90
12957;DHT22;6543;48.836;10.092;2023-04-05T08:34:48;4.80;99.90
12957;DHT22;6543;48.836;10.092;2023-04-05T08:37:17;4.90;99.90
12957;DHT22;6543;48.836;10.092;2023-04-05T08:39:44;4.90;99.90
12957;DHT22;6543;48.836;10.092;2023-04-05T08:42:15;4.80;99.90
12957;DHT22;6543;48.836;10.092;2023-04-05T08:44:43;6.80;99.90
12957;DHT22;6543;48.836;10.092;2023-04-05T08:47:12;5.30;99.90
12957;DHT22;6543;48.836;10.092;2023-04-05T08:49:43;5.10;99.90
12957;DHT22;6543;48.836;10.092;2023-04-05T08:52:10;5.40;99.90
12957;DHT22;6543;48.836;10.092;2023-04-05T08:54:39;6.20;99.90
12957;DHT22;6543;48.836;10.092;2023-04-05T08:57:07;5.90;99.90
12957;DHT22;6543;48.836;10.092;2023-04-05T08:59:37;5.00;99.90
12957;DHT22;6543;48.836;10.092;2023-04-05T09:02:16;6.40;99.90
12957;DHT22;6543;48.836;10.092;2023-04-05T09:04:44;5.30;99.90
12957;DHT22;6543;48.836;10.092;2023-04-05T09:07:13;5.30;99.90
12957;DHT22;6543;48.836;10.092;2023-04-05T09:09:45;7.90;99.90
12957;DHT22;6543;48.836;10.092;2023-04-05T09:12:20;8.60;99.90
12957;DHT22;6543;48.836;10.092;2023-04-05T09:14:53;5.60;99.90
12957;DHT22;6543;48.836;10.092;2023-04-05T09:17:38;8.00;99.90
12957;DHT22;6543;48.836;10.092;2023-04-05T09:20:26;5.20;99.90
12957;DHT22;6543;48.836;10.092;2023-04-05T09:22:58;8.40;99.90
12957;DHT22;6543;48.836;10.092;2023-04-05T09:25:36;4.20;99.90
12957;DHT22;6543;48.836;10.092;2023-04-05T09:28:05;7.50;99.90
12957;DHT22;6543;48.836;10.092;2023-04-05T09:30:38;10.30;99.90
12957;DHT22;6543;48.836;10.092;2023-04-05T09:33:17;10.00;99.90
12957;DHT22;6543;48.836;10.092;2023-04-05T09:35:48;7.70;99.90
12957;DHT22;6543;48.836;10.092;2023-04-05T09:38:16;10.40;99.90
12957;DHT22;6543;48.836;10.092;2023-04-05T09:40:46;7.20;99.90
12957;DHT22;6543;48.836;10.092;2023-04-05T09:46:01;8.10;99.50
12957;DHT22;6543;48.836;10.092;2023-04-05T09:48:44;6.30;99.90
12957;DHT22;6543;48.836;10.092;2023-04-05T09:51:12;7.30;99.70
12957;DHT22;6543;48.836;10.092;2023-04-05T09:53:57;7.50;98.90
12957;DHT22;6543;48.836;10.092;2023-04-05T09:56:28;7.20;98.70
12957;DHT22;6543;48.836;10.092;2023-04-05T09:59:00;7.40;98.80
12957;DHT22;6543;48.836;10.092;2023-04-05T10:01:30;5.00;98.60
12957;DHT22;6543;48.836;10.092;2023-04-05T10:03:58;6.80;98.00
12957;DHT22;6543;48.836;10.092;2023-04-05T10:06:34;7.20;98.90
12957;DHT22;6543;48.836;10.092;2023-04-05T10:09:03;8.00;98.90
12957;DHT22;6543;48.836;10.092;2023-04-05T10:11:45;6.50;97.40
12957;DHT22;6543;48.836;10.092;2023-04-05T10:14:13;6.40;97.50
12957;DHT22;6543;48.836;10.092;2023-04-05T10:16:46;5.90;97.90
12957;DHT22;6543;48.836;10.092;2023-04-05T10:19:25;6.00;98.30
12957;DHT22;6543;48.836;10.092;2023-04-05T10:21:54;7.20;98.60
12957;DHT22;6543;48.836;10.092;2023-04-05T10:24:33;7.00;98.20
12957;DHT22;6543;48.836;10.092;2023-04-05T10:27:10;6.30;97.60
12957;DHT22;6543;48.836;10.092;2023-04-05T10:29:46;6.60;97.20
12957;DHT22;6543;48.836;10.092;2023-04-05T10:32:21;6.60;97.30
12957;DHT22;6543;48.836;10.092;2023-04-05T10:34:56;7.00;97.80
12957;DHT22;6543;48.836;10.092;2023-04-05T10:37:33;7.20;97.60
12957;DHT22;6543;48.836;10.092;2023-04-05T10:40:03;9.10;97.80
12957;DHT22;6543;48.836;10.092;2023-04-05T10:42:40;8.20;96.70
12957;DHT22;6543;48.836;10.092;2023-04-05T10:45:10;7.90;96.40
12957;DHT22;6543;48.836;10.092;2023-04-05T10:47:43;7.90;96.60
12957;DHT22;6543;48.836;10.092;2023-04-05T10:50:20;8.20;97.00
12957;DHT22;6543;48.836;10.092;2023-04-05T10:52:53;9.00;96.80
12957;DHT22;6543;48.836;10.092;2023-04-05T10:55:25;8.10;97.40
12957;DHT22;6543;48.836;10.092;2023-04-05T10:57:55;8.40;99.30
12957;DHT22;6543;48.836;10.092;2023-04-05T11:00:23;6.60;97.60
12957;DHT22;6543;48.836;10.092;2023-04-05T11:03:00;8.10;96.00
12957;DHT22;6543;48.836;10.092;2023-04-05T11:05:32;10.50;97.10
12957;DHT22;6543;48.836;10.092;2023-04-05T11:08:04;8.10;96.20
12957;DHT22;6543;48.836;10.092;2023-04-05T11:10:34;11.00;95.80
12957;DHT22;6543;48.836;10.092;2023-04-05T11:13:07;7.60;96.30
12957;DHT22;6543;48.836;10.092;2023-04-05T11:15:37;7.00;94.70
12957;DHT22;6543;48.836;10.092;2023-04-05T11:18:09;8.20;96.10
12957;DHT22;6543;48.836;10.092;2023-04-05T11:20:43;8.10;95.40
12957;DHT22;6543;48.836;10.092;2023-04-05T11:23:18;10.40;95.60
12957;DHT22;6543;48.836;10.092;2023-04-05T11:25:55;6.40;96.60
12957;DHT22;6543;48.836;10.092;2023-04-05T11:28:28;7.60;96.90
12957;DHT22;6543;48.836;10.092;2023-04-05T11:30:57;8.30;96.50
12957;DHT22;6543;48.836;10.092;2023-04-05T11:33:52;10.30;97.20
12957;DHT22;6543;48.836;10.092;2023-04-05T11:36:35;9.40;96.30
12957;DHT22;6543;48.836;10.092;2023-04-05T11:39:24;7.70;94.90
12957;DHT22;6543;48.836;10.092;2023-04-05T11:42:00;7.90;94.90
12957;DHT22;6543;48.836;10.092;2023-04-05T11:44:29;6.90;93.90
12957;DHT22;6543;48.836;10.092;2023-04-05T11:47:05;7.30;94.00
12957;DHT22;6543;48.836;10.092;2023-04-05T11:49:33;7.70;94.30
12957;DHT22;6543;48.836;10.092;2023-04-05T11:52:09;8.70;94.40
12957;DHT22;6543;48.836;10.092;2023-04-05T11:54:36;7.20;93.40
12957;DHT22;6543;48.836;10.092;2023-04-05T11:57:04;7.10;93.70
12957;DHT22;6543;48.836;10.092;2023-04-05T11:59:34;7.40;93.60
12957;DHT22;6543;48.836;10.092;2023-04-05T12:02:03;5.50;93.00
12957;DHT22;6543;48.836;10.092;2023-04-05T12:04:32;8.70;94.40
12957;DHT22;6543;48.836;10.092;2023-04-05T12:07:10;9.00;95.70
12957;DHT22;6543;48.836;10.092;2023-04-05T12:09:59;7.70;95.20
12957;DHT22;6543;48.836;10.092;2023-04-05T12:12:26;7.70;94.50
12957;DHT22;6543;48.836;10.092;2023-04-05T12:15:01;7.90;94.20
12957;DHT22;6543;48.836;10.092;2023-04-05T12:17:42;7.50;94.40
12957;DHT22;6543;48.836;10.092;2023-04-05T12:20:12;7.30;94.90
12957;DHT22;6543;48.836;10.092;2023-04-05T12:22:41;7.10;94.50
12957;DHT22;6543;48.836;10.092;2023-04-05T12:25:09;7.80;94.40
12957;DHT22;6543;48.836;10.092;2023-04-05T12:27:37;7.50;94.40
12957;DHT22;6543;48.836;10.092;2023-04-05T12:30:08;7.10;94.60
12957;DHT22;6543;48.836;10.092;2023-04-05T12:32:39;7.30;94.90
12957;DHT22;6543;48.836;10.092;2023-04-05T12:35:09;8.20;95.20
12957;DHT22;6543;48.836;10.092;2023-04-05T12:37:37;7.20;94.90
12957;DHT22;6543;48.836;10.092;2023-04-05T12:40:05;7.30;94.90
12957;DHT22;6543;48.836;10.092;2023-04-05T12:42:32;7.20;94.30
12957;DHT22;6543;48.836;10.092;2023-04-05T12:45:02;7.40;94.50
12957;DHT22;6543;48.836;10.092;2023-04-05T12:47:32;7.70;94.60
12957;DHT22;6543;48.836;10.092;2023-04-05T12:50:09;7.50;94.40
12957;DHT22;6543;48.836;10.092;2023-04-05T12:52:36;7.50;94.40
12957;DHT22;6543;48.836;10.092;2023-04-05T12:55:04;8.80;95.40
12957;DHT22;6543;48.836;10.092;2023-04-05T12:57:40;7.50;94.40
12957;DHT22;6543;48.836;10.092;2023-04-05T13:00:08;7.90;94.70
12957;DHT22;6543;48.836;10.092;2023-04-05T13:02:50;7.40;95.40
12957;DHT22;6543;48.836;10.092;2023-04-05T13:05:19;8.50;95.30
12957;DHT22;6543;48.836;10.092;2023-04-05T13:07:47;7.80;94.80
12957;DHT22;6543;48.836;10.092;2023-04-05T13:10:15;7.70;94.40
12957;DHT22;6543;48.836;10.092;2023-04-05T13:12:43;7.50;94.10
12957;DHT22;6543;48.836;10.092;2023-04-05T13:15:10;7.80;94.30
12957;DHT22;6543;48.836;10.092;2023-04-05T13:17:38;7.60;94.30
12957;DHT22;6543;48.836;10.092;2023-04-05T13:20:08;8.30;94.40
12957;DHT22;6543;48.836;10.092;2023-04-05T13:22:38;7.90;94.30
12957;DHT22;6543;48.836;10.092;2023-04-05T13:25:05;7.90;93.90
12957;DHT22;6543;48.836;10.092;2023-04-05T13:27:33;7.90;94.40
12957;DHT22;6543;48.836;10.092;2023-04-05T13:30:15;7.40;94.20
12957;DHT22;6543;48.836;10.092;2023-04-05T13:32:43;7.60;94.00
12957;DHT22;6543;48.836;10.092;2023-04-05T13:35:12;7.90;93.90
12957;DHT22;6543;48.836;10.092;2023-04-05T13:37:40;8.70;94.10
12957;DHT22;6543;48.836;10.092;2023-04-05T13:40:08;7.90;93.60
12957;DHT22;6543;48.836;10.092;2023-04-05T13:42:36;8.00;93.70
12957;DHT22;6543;48.836;10.092;2023-04-05T13:45:04;7.80;93.70
12957;DHT22;6543;48.836;10.092;2023-04-05T13:47:31;7.80;93.60
12957;DHT22;6543;48.836;10.092;2023-04-05T13:49:59;9.30;94.50
12957;DHT22;6543;48.836;10.092;2023-04-05T13:52:29;8.20;93.60
12957;DHT22;6543;48.836;10.092;2023-04-05T13:54:57;8.60;93.50
12957;DHT22;6543;48.836;10.092;2023-04-05T13:57:24;8.50;92.90
12957;DHT22;6543;48.836;10.092;2023-04-05T13:59:51;8.10;93.20
12957;DHT22;6543;48.836;10.092;2023-04-05T14:02:19;8.20;93.60
12957;DHT22;6543;48.836;10.092;2023-04-05T14:04:50;8.20;93.70
12957;DHT22;6543;48.836;10.092;2023-04-05T14:07:17;8.50;93.10
12957;DHT22;6543;48.836;10.092;2023-04-05T14:09:46;9.70;93.90
12957;DHT22;6543;48.836;10.092;2023-04-05T14:12:13;8.50;93.90
12957;DHT22;6543;48.836;10.092;2023-04-05T14:14:40;11.00;94.60
12957;DHT22;6543;48.836;10.092;2023-04-05T14:17:16;8.30;94.00
12957;DHT22;6543;48.836;10.092;2023-04-05T14:19:43;8.30;93.60
12957;DHT22;6543;48.836;10.092;2023-04-05T14:22:11;7.60;93.50
12957;DHT22;6543;48.836;10.092;2023-04-05T14:24:38;8.00;94.70
12957;DHT22;6543;48.836;10.092;2023-04-05T14:27:07;8.00;94.20
12957;DHT22;6543;48.836;10.092;2023-04-05T14:29:34;8.20;94.50
12957;DHT22;6543;48.836;10.092;2023-04-05T14:32:01;8.10;94.40
12957;DHT22;6543;48.836;10.092;2023-04-05T14:34:31;8.10;94.70
12957;DHT22;6543;48.836;10.092;2023-04-05T14:37:01;7.90;95.70
12957;DHT22;6543;48.836;10.092;2023-04-05T14:39:28;8.20;94.30
12957;DHT22;6543;48.836;10.092;2023-04-05T14:41:55;8.10;94.30
12957;DHT22;6543;48.836;10.092;2023-04-05T14:44:25;8.00;94.40
12957;DHT22;6543;48.836;10.092;2023-04-05T14:46:53;7.80;94.00
12957;DHT22;6543;48.836;10.092;2023-04-05T14:49:20;7.90;94.10
12957;DHT22;6543;48.836;10.092;2023-04-05T14:51:47;7.90;94.50
12957;DHT22;6543;48.836;10.092;2023-04-05T14:54:14;7.80;94.10
12957;DHT22;6543;48.836;10.092;2023-04-05T14:56:41;7.70;94.50
12957;DHT22;6543;48.836;10.092;2023-04-05T14:59:08;7.80;93.90
12957;DHT22;6543;48.836;10.092;2023-04-05T15:01:37;8.00;93.90
12957;DHT22;6543;48.836;10.092;2023-04-05T15:04:10;8.00;94.20
12957;DHT22;6543;48.836;10.092;2023-04-05T15:06:38;7.80;94.30
12957;DHT22;6543;48.836;10.092;2023-04-05T15:09:07;7.70;94.10
12957;DHT22;6543;48.836;10.092;2023-04-05T15:11:35;7.90;94.60
12957;DHT22;6543;48.836;10.092;2023-04-05T15:14:03;7.70;94.80
12957;DHT22;6543;48.836;10.092;2023-04-05T15:16:31;7.80;94.60
12957;DHT22;6543;48.836;10.092;2023-04-05T15:19:01;7.90;94.60
12957;DHT22;6543;48.836;10.092;2023-04-05T15:21:28;7.90;93.80
12957;DHT22;6543;48.836;10.092;2023-04-05T15:23:56;8.00;94.10
12957;DHT22;6543;48.836;10.092;2023-04-05T15:26:23;7.80;94.60
12957;DHT22;6543;48.836;10.092;2023-04-05T15:28:51;8.00;93.90
12957;DHT22;6543;48.836;10.092;2023-04-05T15:31:18;7.90;94.00
12957;DHT22;6543;48.836;10.092;2023-04-05T15:33:45;7.80;93.90
12957;DHT22;6543;48.836;10.092;2023-04-05T15:36:25;8.30;94.00
12957;DHT22;6543;48.836;10.092;2023-04-05T15:38:55;8.20;94.20
12957;DHT22;6543;48.836;10.092;2023-04-05T15:41:22;8.10;94.20
12957;DHT22;6543;48.836;10.092;2023-04-05T15:43:49;8.00;93.50
12957;DHT22;6543;48.836;10.092;2023-04-05T15:46:16;8.00;93.50
12957;DHT22;6543;48.836;10.092;2023-04-05T15:48:43;8.10;93.50
12957;DHT22;6543;48.836;10.092;2023-04-05T15:51:11;8.30;93.50
12957;DHT22;6543;48.836;10.092;2023-04-05T15:53:40;8.00;93.50
12957;DHT22;6543;48.836;10.092;2023-04-05T15:56:07;8.00;94.10
12957;DHT22;6543;48.836;10.092;2023-04-05T15:58:35;7.90;93.40
12957;DHT22;6543;48.836;10.092;2023-04-05T16:01:02;8.00;93.00
12957;DHT22;6543;48.836;10.092;2023-04-05T16:03:30;8.00;93.30
12957;DHT22;6543;48.836;10.092;2023-04-05T16:05:57;8.00;93.70
12957;DHT22;6543;48.836;10.092;2023-04-05T16:08:25;7.90;93.80
12957;DHT22;6543;48.836;10.092;2023-04-05T16:10:55;7.90;93.40
12957;DHT22;6543;48.836;10.092;2023-04-05T16:13:22;7.80;93.70
12957;DHT22;6543;48.836;10.092;2023-04-05T16:15:50;7.80;93.90
12957;DHT22;6543;48.836;10.092;2023-04-05T16:18:17;7.70;93.70
12957;DHT22;6543;48.836;10.092;2023-04-05T16:20:46;7.80;94.10
12957;DHT22;6543;48.836;10.092;2023-04-05T16:23:13;7.70;93.80
12957;DHT22;6543;48.836;10.092;2023-04-05T16:25:41;7.80;93.80
12957;DHT22;6543;48.836;10.092;2023-04-05T16:28:09;7.80;93.60
12957;DHT22;6543;48.836;10.092;2023-04-05T16:30:37;7.70;94.00
12957;DHT22;6543;48.836;10.092;2023-04-05T16:33:04;6.00;93.30
12957;DHT22;6543;48.836;10.092;2023-04-05T16:35:31;7.90;93.70
12957;DHT22;6543;48.836;10.092;2023-04-05T16:37:59;7.90;93.50
12957;DHT22;6543;48.836;10.092;2023-04-05T16:40:27;8.10;93.80
12957;DHT22;6543;48.836;10.092;2023-04-05T16:42:54;8.20;93.70
12957;DHT22;6543;48.836;10.092;2023-04-05T16:45:23;7.90;93.80
12957;DHT22;6543;48.836;10.092;2023-04-05T16:47:50;7.90;93.40
12957;DHT22;6543;48.836;10.092;2023-04-05T16:50:18;7.80;93.40
12957;DHT22;6543;48.836;10.092;2023-04-05T16:52:45;7.90;94.10
12957;DHT22;6543;48.836;10.092;2023-04-05T16:55:12;8.10;94.00
12957;DHT22;6543;48.836;10.092;2023-04-05T16:57:39;8.00;93.70
12957;DHT22;6543;48.836;10.092;2023-04-05T17:00:08;8.00;93.60
12957;DHT22;6543;48.836;10.092;2023-04-05T17:02:37;8.00;93.50
12957;DHT22;6543;48.836;10.092;2023-04-05T17:05:05;8.00;93.40